Puerto Plata, Dominican Republic

5:06 AM AST on June 26, 2017 (GMT -0400)
Costambar | | Change Station

Elev 43 ft 19.81 °N, 70.71 °W | Updated 12 seconds ago

Partly Cloudy
Partly Cloudy
80.4 °F
Feels Like 87 °F
N
0.7
Wind Variable Wind from SSE
Gusts 2.5 mph

Today
High -- | Low -- °F
--% Chance of Precip.
Yesterday
High -- | Low -- °F
Precip. -- in
Pressure 30.01 in
Visibility 6.2 miles
Clouds Few 1600 ft
Heat Index 87 °F
Dew Point 78 °F
Humidity 91%
Rainfall 0.00 in
Snow Depth Not available.
6:06 AM 7:25 PM
Waxing Crescent, 7% visible
METAR MDST 260800Z 15005KT 9999 FEW016 24/23 Q1016 NOSIG
Pressure 30.01 in
Visibility 6.2 miles
Clouds Few 1600 ft
Heat Index 87 °F
Dew Point 78 °F
Humidity 91%
Rainfall 0.00 in
Snow Depth Not available.
6:06 AM 7:25 PM
Waxing Crescent, 7% visible
METAR MDST 260800Z 15005KT 9999 FEW016 24/23 Q1016 NOSIG

Get Severe Weather Alerts

Thanks for signing up!

Be on the lookout for a verification email in your inbox.

You'll start receiving the daily forecast at 6 AM.

×

10-Day Weather Forecast

No radar image for this location.
×

Almanac

Astronomy

Jun. 26, 2017 Rise Set
Actual Time
Civil Twilight
Nautical Twilight
Astronomical Twilight
Moon
Length of Visible Light
Length of Day
Tomorrow will be .
, % of the Moon is Illuminated

Today's Extremes

Country Highs Country Lows

Community

WunderPhotos

Category 6

Welcome to Category 6. This is the collective home for Weather Underground's featured writeups by Dr. Jeff Masters (right), Bob Henson (left), Chris Burt, and other regular contributors.

Nearby

Air Quality

  Air Quality AQ Index Pollutant
Not available.

Snow Depth

Station Depth Elevation

Earthquake Activity

City Distance Mag. Time & Date
Minimum magnitude displayed is 2.5.

Coastal Water Temperatures

Place Temperature

Stations

Nearby Weather Stations

Station Location Temp. Windchill Dew Point Humidity Wind Precip. Elev Updated Type